sensor_id;sensor_type;location;lat;lon;timestamp;P1;durP1;ratioP1;P2;durP2;ratioP2
13463;SDS011;6804;48.774;9.174;2022-11-03T00:01:31;8.80;;;4.10;;
13463;SDS011;6804;48.774;9.174;2022-11-03T00:03:59;8.97;;;5.03;;
13463;SDS011;6804;48.774;9.174;2022-11-03T00:06:26;7.27;;;4.20;;
13463;SDS011;6804;48.774;9.174;2022-11-03T00:08:56;8.17;;;4.40;;
13463;SDS011;6804;48.774;9.174;2022-11-03T00:11:32;8.97;;;4.27;;
13463;SDS011;6804;48.774;9.174;2022-11-03T00:14:01;6.53;;;3.97;;
13463;SDS011;6804;48.774;9.174;2022-11-03T00:16:29;8.43;;;4.27;;
13463;SDS011;6804;48.774;9.174;2022-11-03T00:19:01;6.37;;;4.23;;
13463;SDS011;6804;48.774;9.174;2022-11-03T00:21:28;9.83;;;4.10;;
13463;SDS011;6804;48.774;9.174;2022-11-03T00:23:59;6.63;;;3.63;;
13463;SDS011;6804;48.774;9.174;2022-11-03T00:26:27;7.37;;;4.20;;
13463;SDS011;6804;48.774;9.174;2022-11-03T00:28:59;9.77;;;4.23;;
13463;SDS011;6804;48.774;9.174;2022-11-03T00:31:30;8.37;;;4.00;;
13463;SDS011;6804;48.774;9.174;2022-11-03T00:34:01;6.23;;;4.27;;
13463;SDS011;6804;48.774;9.174;2022-11-03T00:36:29;7.57;;;4.10;;
13463;SDS011;6804;48.774;9.174;2022-11-03T00:39:00;7.30;;;4.20;;
13463;SDS011;6804;48.774;9.174;2022-11-03T00:41:28;9.93;;;4.90;;
13463;SDS011;6804;48.774;9.174;2022-11-03T00:44:02;7.07;;;4.70;;
13463;SDS011;6804;48.774;9.174;2022-11-03T00:46:30;6.43;;;3.73;;
13463;SDS011;6804;48.774;9.174;2022-11-03T00:49:01;9.10;;;4.43;;
13463;SDS011;6804;48.774;9.174;2022-11-03T00:51:28;9.33;;;4.50;;
13463;SDS011;6804;48.774;9.174;2022-11-03T00:54:00;6.43;;;4.23;;
13463;SDS011;6804;48.774;9.174;2022-11-03T00:56:31;6.60;;;4.00;;
13463;SDS011;6804;48.774;9.174;2022-11-03T00:59:00;12.27;;;5.00;;
13463;SDS011;6804;48.774;9.174;2022-11-03T01:01:31;7.17;;;4.10;;
13463;SDS011;6804;48.774;9.174;2022-11-03T01:04:01;6.10;;;4.17;;
13463;SDS011;6804;48.774;9.174;2022-11-03T01:06:47;9.50;;;4.53;;
13463;SDS011;6804;48.774;9.174;2022-11-03T01:09:20;10.43;;;4.43;;
13463;SDS011;6804;48.774;9.174;2022-11-03T01:11:52;9.60;;;4.20;;
13463;SDS011;6804;48.774;9.174;2022-11-03T01:14:23;13.17;;;4.93;;
13463;SDS011;6804;48.774;9.174;2022-11-03T01:16:52;5.60;;;4.37;;
13463;SDS011;6804;48.774;9.174;2022-11-03T01:19:21;9.43;;;4.27;;
13463;SDS011;6804;48.774;9.174;2022-11-03T01:21:51;9.67;;;4.40;;
13463;SDS011;6804;48.774;9.174;2022-11-03T01:24:21;7.80;;;4.63;;
13463;SDS011;6804;48.774;9.174;2022-11-03T01:26:51;5.40;;;4.43;;
13463;SDS011;6804;48.774;9.174;2022-11-03T01:29:18;6.83;;;4.30;;
13463;SDS011;6804;48.774;9.174;2022-11-03T01:31:48;7.50;;;4.57;;
13463;SDS011;6804;48.774;9.174;2022-11-03T01:34:21;8.23;;;4.57;;
13463;SDS011;6804;48.774;9.174;2022-11-03T01:36:48;10.23;;;5.13;;
13463;SDS011;6804;48.774;9.174;2022-11-03T01:39:16;5.97;;;4.40;;
13463;SDS011;6804;48.774;9.174;2022-11-03T01:41:49;6.73;;;4.47;;
13463;SDS011;6804;48.774;9.174;2022-11-03T01:44:28;6.10;;;4.70;;
13463;SDS011;6804;48.774;9.174;2022-11-03T01:47:20;8.23;;;5.00;;
13463;SDS011;6804;48.774;9.174;2022-11-03T01:49:53;9.40;;;4.83;;
13463;SDS011;6804;48.774;9.174;2022-11-03T01:52:24;8.20;;;4.60;;
13463;SDS011;6804;48.774;9.174;2022-11-03T01:54:54;5.57;;;4.20;;
13463;SDS011;6804;48.774;9.174;2022-11-03T01:57:27;8.57;;;4.30;;
13463;SDS011;6804;48.774;9.174;2022-11-03T01:59:59;7.53;;;4.50;;
13463;SDS011;6804;48.774;9.174;2022-11-03T02:02:29;9.00;;;4.70;;
13463;SDS011;6804;48.774;9.174;2022-11-03T02:05:07;9.07;;;4.70;;
13463;SDS011;6804;48.774;9.174;2022-11-03T02:07:40;9.50;;;4.40;;
13463;SDS011;6804;48.774;9.174;2022-11-03T02:10:14;7.67;;;4.23;;
13463;SDS011;6804;48.774;9.174;2022-11-03T02:12:44;10.20;;;4.97;;
13463;SDS011;6804;48.774;9.174;2022-11-03T02:15:15;8.97;;;4.77;;
13463;SDS011;6804;48.774;9.174;2022-11-03T02:17:49;7.53;;;3.63;;
13463;SDS011;6804;48.774;9.174;2022-11-03T02:20:21;7.50;;;4.17;;
13463;SDS011;6804;48.774;9.174;2022-11-03T02:23:03;9.87;;;4.47;;
13463;SDS011;6804;48.774;9.174;2022-11-03T02:25:44;7.20;;;4.23;;
13463;SDS011;6804;48.774;9.174;2022-11-03T02:28:14;6.60;;;4.10;;
13463;SDS011;6804;48.774;9.174;2022-11-03T02:30:44;5.73;;;3.90;;
13463;SDS011;6804;48.774;9.174;2022-11-03T02:33:26;8.67;;;4.17;;
13463;SDS011;6804;48.774;9.174;2022-11-03T02:35:58;7.00;;;4.10;;
13463;SDS011;6804;48.774;9.174;2022-11-03T02:38:32;6.17;;;3.80;;
13463;SDS011;6804;48.774;9.174;2022-11-03T02:41:04;6.27;;;4.23;;
13463;SDS011;6804;48.774;9.174;2022-11-03T02:43:37;8.70;;;4.10;;
13463;SDS011;6804;48.774;9.174;2022-11-03T02:46:05;7.43;;;4.30;;
13463;SDS011;6804;48.774;9.174;2022-11-03T02:48:33;8.70;;;3.83;;
13463;SDS011;6804;48.774;9.174;2022-11-03T02:51:02;8.13;;;4.27;;
13463;SDS011;6804;48.774;9.174;2022-11-03T02:53:30;8.13;;;4.00;;
13463;SDS011;6804;48.774;9.174;2022-11-03T02:56:05;8.97;;;4.40;;
13463;SDS011;6804;48.774;9.174;2022-11-03T02:58:37;6.23;;;3.80;;
13463;SDS011;6804;48.774;9.174;2022-11-03T03:01:11;8.17;;;4.20;;
13463;SDS011;6804;48.774;9.174;2022-11-03T03:03:44;5.43;;;3.00;;
13463;SDS011;6804;48.774;9.174;2022-11-03T03:06:15;7.10;;;3.50;;
13463;SDS011;6804;48.774;9.174;2022-11-03T03:08:49;8.27;;;3.67;;
13463;SDS011;6804;48.774;9.174;2022-11-03T03:11:21;7.30;;;3.63;;
13463;SDS011;6804;48.774;9.174;2022-11-03T03:14:07;7.63;;;3.70;;
13463;SDS011;6804;48.774;9.174;2022-11-03T03:16:41;5.83;;;3.23;;
13463;SDS011;6804;48.774;9.174;2022-11-03T03:19:21;9.97;;;3.60;;
13463;SDS011;6804;48.774;9.174;2022-11-03T03:21:55;6.23;;;3.80;;
13463;SDS011;6804;48.774;9.174;2022-11-03T03:24:30;5.83;;;2.97;;
13463;SDS011;6804;48.774;9.174;2022-11-03T03:27:08;8.33;;;3.70;;
13463;SDS011;6804;48.774;9.174;2022-11-03T03:29:45;6.30;;;2.87;;
13463;SDS011;6804;48.774;9.174;2022-11-03T03:32:15;5.23;;;3.20;;
13463;SDS011;6804;48.774;9.174;2022-11-03T03:34:47;6.73;;;3.23;;
13463;SDS011;6804;48.774;9.174;2022-11-03T03:37:16;4.93;;;2.83;;
13463;SDS011;6804;48.774;9.174;2022-11-03T03:39:50;7.47;;;2.83;;
13463;SDS011;6804;48.774;9.174;2022-11-03T03:42:23;6.77;;;3.37;;
13463;SDS011;6804;48.774;9.174;2022-11-03T03:44:54;6.13;;;3.20;;
13463;SDS011;6804;48.774;9.174;2022-11-03T03:47:26;5.60;;;3.43;;
13463;SDS011;6804;48.774;9.174;2022-11-03T03:49:55;6.47;;;2.93;;
13463;SDS011;6804;48.774;9.174;2022-11-03T03:52:23;8.07;;;3.33;;
13463;SDS011;6804;48.774;9.174;2022-11-03T03:54:51;5.93;;;2.90;;
13463;SDS011;6804;48.774;9.174;2022-11-03T03:57:21;7.20;;;3.00;;
13463;SDS011;6804;48.774;9.174;2022-11-03T03:59:51;5.30;;;3.53;;
13463;SDS011;6804;48.774;9.174;2022-11-03T04:02:18;4.47;;;3.07;;
13463;SDS011;6804;48.774;9.174;2022-11-03T04:04:46;6.87;;;3.63;;
13463;SDS011;6804;48.774;9.174;2022-11-03T04:07:13;7.50;;;3.50;;
13463;SDS011;6804;48.774;9.174;2022-11-03T04:09:58;6.57;;;3.93;;
13463;SDS011;6804;48.774;9.174;2022-11-03T04:12:26;9.23;;;4.43;;
13463;SDS011;6804;48.774;9.174;2022-11-03T04:15:11;6.30;;;4.53;;
13463;SDS011;6804;48.774;9.174;2022-11-03T04:17:59;9.00;;;5.23;;
13463;SDS011;6804;48.774;9.174;2022-11-03T04:20:44;7.63;;;5.27;;
13463;SDS011;6804;48.774;9.174;2022-11-03T04:23:28;9.87;;;4.83;;
13463;SDS011;6804;48.774;9.174;2022-11-03T04:25:56;11.00;;;5.00;;
13463;SDS011;6804;48.774;9.174;2022-11-03T04:28:27;8.47;;;5.20;;
13463;SDS011;6804;48.774;9.174;2022-11-03T04:30:57;8.60;;;4.07;;
13463;SDS011;6804;48.774;9.174;2022-11-03T04:33:25;8.70;;;4.37;;
13463;SDS011;6804;48.774;9.174;2022-11-03T04:35:57;5.63;;;3.60;;
13463;SDS011;6804;48.774;9.174;2022-11-03T04:38:28;4.80;;;3.40;;
13463;SDS011;6804;48.774;9.174;2022-11-03T04:40:56;8.37;;;3.67;;
13463;SDS011;6804;48.774;9.174;2022-11-03T04:43:31;7.37;;;3.30;;
13463;SDS011;6804;48.774;9.174;2022-11-03T04:46:00;6.43;;;3.33;;
13463;SDS011;6804;48.774;9.174;2022-11-03T04:48:28;7.60;;;3.27;;
13463;SDS011;6804;48.774;9.174;2022-11-03T04:50:57;5.80;;;3.10;;
13463;SDS011;6804;48.774;9.174;2022-11-03T04:53:30;5.57;;;3.67;;
13463;SDS011;6804;48.774;9.174;2022-11-03T04:55:58;5.83;;;3.20;;
13463;SDS011;6804;48.774;9.174;2022-11-03T04:58:27;5.97;;;3.40;;
13463;SDS011;6804;48.774;9.174;2022-11-03T05:00:59;8.40;;;3.77;;
13463;SDS011;6804;48.774;9.174;2022-11-03T05:03:28;9.40;;;4.27;;
13463;SDS011;6804;48.774;9.174;2022-11-03T05:05:57;7.80;;;3.77;;
13463;SDS011;6804;48.774;9.174;2022-11-03T05:08:33;7.47;;;3.43;;
13463;SDS011;6804;48.774;9.174;2022-11-03T05:11:03;11.80;;;4.20;;
13463;SDS011;6804;48.774;9.174;2022-11-03T05:13:39;7.83;;;3.90;;
13463;SDS011;6804;48.774;9.174;2022-11-03T05:16:08;6.67;;;4.10;;
13463;SDS011;6804;48.774;9.174;2022-11-03T05:18:39;6.83;;;3.53;;
13463;SDS011;6804;48.774;9.174;2022-11-03T05:21:08;8.00;;;3.83;;
13463;SDS011;6804;48.774;9.174;2022-11-03T05:23:38;10.40;;;3.80;;
13463;SDS011;6804;48.774;9.174;2022-11-03T05:26:10;5.13;;;3.90;;
13463;SDS011;6804;48.774;9.174;2022-11-03T05:28:42;6.03;;;4.13;;
13463;SDS011;6804;48.774;9.174;2022-11-03T05:31:21;6.83;;;4.00;;
13463;SDS011;6804;48.774;9.174;2022-11-03T05:33:50;6.20;;;3.93;;
13463;SDS011;6804;48.774;9.174;2022-11-03T05:36:19;13.67;;;4.73;;
13463;SDS011;6804;48.774;9.174;2022-11-03T05:38:48;8.10;;;4.37;;
13463;SDS011;6804;48.774;9.174;2022-11-03T05:41:20;6.93;;;4.47;;
13463;SDS011;6804;48.774;9.174;2022-11-03T05:43:53;6.70;;;3.87;;
13463;SDS011;6804;48.774;9.174;2022-11-03T05:46:31;6.03;;;4.10;;
13463;SDS011;6804;48.774;9.174;2022-11-03T05:49:00;9.17;;;4.43;;
13463;SDS011;6804;48.774;9.174;2022-11-03T05:51:30;7.03;;;4.10;;
13463;SDS011;6804;48.774;9.174;2022-11-03T05:54:00;8.30;;;4.43;;
13463;SDS011;6804;48.774;9.174;2022-11-03T05:56:30;7.23;;;4.30;;
13463;SDS011;6804;48.774;9.174;2022-11-03T05:58:58;9.10;;;3.90;;
13463;SDS011;6804;48.774;9.174;2022-11-03T06:01:28;8.70;;;4.23;;
13463;SDS011;6804;48.774;9.174;2022-11-03T06:03:59;7.60;;;4.53;;
13463;SDS011;6804;48.774;9.174;2022-11-03T06:06:32;5.23;;;3.97;;
13463;SDS011;6804;48.774;9.174;2022-11-03T06:09:08;9.43;;;4.20;;
13463;SDS011;6804;48.774;9.174;2022-11-03T06:11:39;7.20;;;4.10;;
13463;SDS011;6804;48.774;9.174;2022-11-03T06:14:13;5.57;;;3.67;;
13463;SDS011;6804;48.774;9.174;2022-11-03T06:16:45;5.67;;;4.07;;
13463;SDS011;6804;48.774;9.174;2022-11-03T06:19:23;8.10;;;4.13;;
13463;SDS011;6804;48.774;9.174;2022-11-03T06:21:55;10.00;;;3.93;;
13463;SDS011;6804;48.774;9.174;2022-11-03T06:24:27;6.50;;;3.50;;
13463;SDS011;6804;48.774;9.174;2022-11-03T06:27:04;9.90;;;3.93;;
13463;SDS011;6804;48.774;9.174;2022-11-03T06:29:31;5.77;;;4.13;;
13463;SDS011;6804;48.774;9.174;2022-11-03T06:31:59;8.23;;;4.47;;
13463;SDS011;6804;48.774;9.174;2022-11-03T06:34:33;5.80;;;3.80;;
13463;SDS011;6804;48.774;9.174;2022-11-03T06:37:10;6.20;;;3.70;;
13463;SDS011;6804;48.774;9.174;2022-11-03T06:39:50;8.60;;;4.67;;
13463;SDS011;6804;48.774;9.174;2022-11-03T06:42:26;7.53;;;4.20;;
13463;SDS011;6804;48.774;9.174;2022-11-03T06:44:57;8.53;;;3.73;;
13463;SDS011;6804;48.774;9.174;2022-11-03T06:47:27;7.43;;;4.03;;
13463;SDS011;6804;48.774;9.174;2022-11-03T06:50:00;10.17;;;4.57;;
13463;SDS011;6804;48.774;9.174;2022-11-03T06:52:46;6.67;;;4.17;;
13463;SDS011;6804;48.774;9.174;2022-11-03T06:55:24;11.30;;;4.43;;
13463;SDS011;6804;48.774;9.174;2022-11-03T06:57:54;10.90;;;4.30;;
13463;SDS011;6804;48.774;9.174;2022-11-03T07:00:34;8.20;;;3.83;;
13463;SDS011;6804;48.774;9.174;2022-11-03T07:03:15;9.37;;;4.10;;
13463;SDS011;6804;48.774;9.174;2022-11-03T07:05:49;7.53;;;4.00;;
13463;SDS011;6804;48.774;9.174;2022-11-03T07:08:22;8.93;;;4.30;;
13463;SDS011;6804;48.774;9.174;2022-11-03T07:10:55;7.70;;;3.70;;
13463;SDS011;6804;48.774;9.174;2022-11-03T07:13:33;6.17;;;4.20;;
13463;SDS011;6804;48.774;9.174;2022-11-03T07:16:01;9.03;;;4.50;;
13463;SDS011;6804;48.774;9.174;2022-11-03T07:18:30;11.20;;;4.37;;
13463;SDS011;6804;48.774;9.174;2022-11-03T07:21:04;8.80;;;4.13;;
13463;SDS011;6804;48.774;9.174;2022-11-03T07:23:38;8.43;;;4.07;;
13463;SDS011;6804;48.774;9.174;2022-11-03T07:26:12;6.10;;;4.27;;
13463;SDS011;6804;48.774;9.174;2022-11-03T07:28:40;6.40;;;4.23;;
13463;SDS011;6804;48.774;9.174;2022-11-03T07:31:11;6.77;;;4.40;;
13463;SDS011;6804;48.774;9.174;2022-11-03T07:33:42;8.60;;;4.67;;
13463;SDS011;6804;48.774;9.174;2022-11-03T07:36:13;12.67;;;5.40;;
13463;SDS011;6804;48.774;9.174;2022-11-03T07:38:45;7.40;;;4.80;;
13463;SDS011;6804;48.774;9.174;2022-11-03T07:41:25;7.63;;;4.73;;
13463;SDS011;6804;48.774;9.174;2022-11-03T07:43:57;6.77;;;4.80;;
13463;SDS011;6804;48.774;9.174;2022-11-03T07:46:28;12.23;;;4.93;;
13463;SDS011;6804;48.774;9.174;2022-11-03T07:48:59;10.63;;;5.00;;
13463;SDS011;6804;48.774;9.174;2022-11-03T07:51:47;8.57;;;5.23;;
13463;SDS011;6804;48.774;9.174;2022-11-03T07:54:15;10.70;;;4.83;;
13463;SDS011;6804;48.774;9.174;2022-11-03T07:56:48;10.30;;;5.20;;
13463;SDS011;6804;48.774;9.174;2022-11-03T07:59:19;8.27;;;4.43;;
13463;SDS011;6804;48.774;9.174;2022-11-03T08:01:50;9.13;;;5.27;;
13463;SDS011;6804;48.774;9.174;2022-11-03T08:04:28;11.93;;;5.17;;
13463;SDS011;6804;48.774;9.174;2022-11-03T08:07:00;10.30;;;5.10;;
13463;SDS011;6804;48.774;9.174;2022-11-03T08:09:28;7.67;;;4.33;;
13463;SDS011;6804;48.774;9.174;2022-11-03T08:11:56;8.00;;;4.50;;
13463;SDS011;6804;48.774;9.174;2022-11-03T08:14:24;6.43;;;3.90;;
13463;SDS011;6804;48.774;9.174;2022-11-03T08:16:53;7.27;;;3.90;;
13463;SDS011;6804;48.774;9.174;2022-11-03T08:19:20;8.40;;;4.40;;
13463;SDS011;6804;48.774;9.174;2022-11-03T08:21:51;4.90;;;3.57;;
13463;SDS011;6804;48.774;9.174;2022-11-03T08:24:24;8.50;;;3.60;;
13463;SDS011;6804;48.774;9.174;2022-11-03T08:26:52;6.83;;;3.97;;
13463;SDS011;6804;48.774;9.174;2022-11-03T08:29:23;5.20;;;3.67;;
13463;SDS011;6804;48.774;9.174;2022-11-03T08:31:52;7.27;;;4.00;;
13463;SDS011;6804;48.774;9.174;2022-11-03T08:34:23;6.97;;;3.60;;
13463;SDS011;6804;48.774;9.174;2022-11-03T08:36:54;8.00;;;4.13;;
13463;SDS011;6804;48.774;9.174;2022-11-03T08:39:24;8.27;;;5.10;;
13463;SDS011;6804;48.774;9.174;2022-11-03T08:41:53;8.23;;;4.73;;
13463;SDS011;6804;48.774;9.174;2022-11-03T08:44:21;9.47;;;4.80;;
13463;SDS011;6804;48.774;9.174;2022-11-03T08:46:49;10.43;;;5.33;;
13463;SDS011;6804;48.774;9.174;2022-11-03T08:49:20;7.87;;;5.43;;
13463;SDS011;6804;48.774;9.174;2022-11-03T08:51:47;8.70;;;5.07;;
13463;SDS011;6804;48.774;9.174;2022-11-03T08:54:16;6.50;;;3.90;;
13463;SDS011;6804;48.774;9.174;2022-11-03T08:56:46;7.57;;;4.00;;
13463;SDS011;6804;48.774;9.174;2022-11-03T08:59:14;7.53;;;3.70;;
13463;SDS011;6804;48.774;9.174;2022-11-03T09:01:45;6.53;;;3.90;;
13463;SDS011;6804;48.774;9.174;2022-11-03T09:04:15;6.27;;;3.30;;
13463;SDS011;6804;48.774;9.174;2022-11-03T09:06:46;7.63;;;3.80;;
13463;SDS011;6804;48.774;9.174;2022-11-03T09:09:17;7.80;;;3.30;;
13463;SDS011;6804;48.774;9.174;2022-11-03T09:11:47;7.13;;;3.87;;
13463;SDS011;6804;48.774;9.174;2022-11-03T09:14:15;5.37;;;3.47;;
13463;SDS011;6804;48.774;9.174;2022-11-03T09:16:43;5.23;;;3.43;;
13463;SDS011;6804;48.774;9.174;2022-11-03T09:19:11;4.90;;;3.20;;
13463;SDS011;6804;48.774;9.174;2022-11-03T09:21:41;6.03;;;2.60;;
13463;SDS011;6804;48.774;9.174;2022-11-03T09:24:11;6.03;;;2.50;;
13463;SDS011;6804;48.774;9.174;2022-11-03T09:26:42;5.40;;;2.40;;
13463;SDS011;6804;48.774;9.174;2022-11-03T09:29:13;4.80;;;2.40;;
13463;SDS011;6804;48.774;9.174;2022-11-03T09:31:47;3.83;;;2.20;;
13463;SDS011;6804;48.774;9.174;2022-11-03T09:34:15;4.90;;;2.40;;
13463;SDS011;6804;48.774;9.174;2022-11-03T09:36:47;4.93;;;2.30;;
13463;SDS011;6804;48.774;9.174;2022-11-03T09:39:15;3.33;;;2.30;;
13463;SDS011;6804;48.774;9.174;2022-11-03T09:41:43;4.90;;;2.20;;
13463;SDS011;6804;48.774;9.174;2022-11-03T09:44:17;3.87;;;2.23;;
13463;SDS011;6804;48.774;9.174;2022-11-03T09:46:45;4.50;;;2.27;;
13463;SDS011;6804;48.774;9.174;2022-11-03T09:49:16;6.43;;;2.70;;
13463;SDS011;6804;48.774;9.174;2022-11-03T09:51:46;4.40;;;2.30;;
13463;SDS011;6804;48.774;9.174;2022-11-03T09:54:14;5.30;;;2.20;;
13463;SDS011;6804;48.774;9.174;2022-11-03T09:56:45;3.47;;;2.50;;
13463;SDS011;6804;48.774;9.174;2022-11-03T09:59:21;4.87;;;2.30;;
13463;SDS011;6804;48.774;9.174;2022-11-03T10:01:52;6.73;;;2.70;;
13463;SDS011;6804;48.774;9.174;2022-11-03T10:04:23;5.47;;;2.23;;
13463;SDS011;6804;48.774;9.174;2022-11-03T10:06:53;4.13;;;2.30;;
13463;SDS011;6804;48.774;9.174;2022-11-03T10:09:27;7.27;;;3.70;;
13463;SDS011;6804;48.774;9.174;2022-11-03T10:11:56;4.40;;;2.30;;
13463;SDS011;6804;48.774;9.174;2022-11-03T10:14:26;4.77;;;2.63;;
13463;SDS011;6804;48.774;9.174;2022-11-03T10:17:02;7.60;;;2.40;;
13463;SDS011;6804;48.774;9.174;2022-11-03T10:19:32;5.13;;;2.37;;
13463;SDS011;6804;48.774;9.174;2022-11-03T10:22:03;3.93;;;2.30;;
13463;SDS011;6804;48.774;9.174;2022-11-03T10:24:32;4.83;;;2.60;;
13463;SDS011;6804;48.774;9.174;2022-11-03T10:27:05;3.97;;;2.37;;
13463;SDS011;6804;48.774;9.174;2022-11-03T10:32:41;3.77;;;2.43;;
13463;SDS011;6804;48.774;9.174;2022-11-03T10:38:16;3.13;;;2.10;;
13463;SDS011;6804;48.774;9.174;2022-11-03T10:40:53;4.33;;;2.47;;
13463;SDS011;6804;48.774;9.174;2022-11-03T10:43:28;4.87;;;2.53;;
13463;SDS011;6804;48.774;9.174;2022-11-03T10:46:11;7.40;;;3.07;;
13463;SDS011;6804;48.774;9.174;2022-11-03T10:48:50;3.23;;;2.30;;
13463;SDS011;6804;48.774;9.174;2022-11-03T10:51:30;5.83;;;2.57;;
13463;SDS011;6804;48.774;9.174;2022-11-03T10:54:00;4.50;;;2.37;;
13463;SDS011;6804;48.774;9.174;2022-11-03T10:56:28;3.93;;;2.60;;
13463;SDS011;6804;48.774;9.174;2022-11-03T10:58:58;5.93;;;2.50;;
13463;SDS011;6804;48.774;9.174;2022-11-03T11:01:27;4.30;;;2.40;;
13463;SDS011;6804;48.774;9.174;2022-11-03T11:04:01;4.43;;;2.87;;
13463;SDS011;6804;48.774;9.174;2022-11-03T11:06:31;3.93;;;2.10;;
13463;SDS011;6804;48.774;9.174;2022-11-03T11:09:01;4.50;;;2.43;;
13463;SDS011;6804;48.774;9.174;2022-11-03T11:11:30;3.70;;;2.40;;
13463;SDS011;6804;48.774;9.174;2022-11-03T11:16:51;3.13;;;2.00;;
13463;SDS011;6804;48.774;9.174;2022-11-03T11:19:22;5.20;;;2.27;;
13463;SDS011;6804;48.774;9.174;2022-11-03T11:21:58;3.77;;;2.23;;
13463;SDS011;6804;48.774;9.174;2022-11-03T11:33:30;5.20;;;2.60;;
13463;SDS011;6804;48.774;9.174;2022-11-03T11:38:58;4.10;;;2.60;;
13463;SDS011;6804;48.774;9.174;2022-11-03T11:47:36;3.10;;;2.20;;
13463;SDS011;6804;48.774;9.174;2022-11-03T11:53:07;4.43;;;3.10;;
13463;SDS011;6804;48.774;9.174;2022-11-03T11:55:51;4.37;;;2.73;;
13463;SDS011;6804;48.774;9.174;2022-11-03T11:58:24;4.07;;;2.20;;
13463;SDS011;6804;48.774;9.174;2022-11-03T12:01:00;4.97;;;2.53;;
13463;SDS011;6804;48.774;9.174;2022-11-03T12:03:34;4.77;;;2.37;;
13463;SDS011;6804;48.774;9.174;2022-11-03T12:06:07;4.27;;;2.50;;
13463;SDS011;6804;48.774;9.174;2022-11-03T12:08:40;4.80;;;2.70;;
13463;SDS011;6804;48.774;9.174;2022-11-03T12:11:10;6.07;;;2.97;;
13463;SDS011;6804;48.774;9.174;2022-11-03T12:13:42;4.20;;;2.50;;
13463;SDS011;6804;48.774;9.174;2022-11-03T12:16:30;11.87;;;4.10;;
13463;SDS011;6804;48.774;9.174;2022-11-03T12:22:07;4.40;;;2.17;;
13463;SDS011;6804;48.774;9.174;2022-11-03T12:24:45;4.00;;;2.30;;
13463;SDS011;6804;48.774;9.174;2022-11-03T12:27:19;3.90;;;2.40;;
13463;SDS011;6804;48.774;9.174;2022-11-03T12:30:14;4.00;;;2.57;;
13463;SDS011;6804;48.774;9.174;2022-11-03T12:32:44;3.70;;;2.00;;
13463;SDS011;6804;48.774;9.174;2022-11-03T12:35:13;4.63;;;3.37;;
13463;SDS011;6804;48.774;9.174;2022-11-03T12:37:41;5.10;;;2.87;;
13463;SDS011;6804;48.774;9.174;2022-11-03T12:40:10;4.00;;;2.30;;
13463;SDS011;6804;48.774;9.174;2022-11-03T12:42:43;3.57;;;2.60;;
13463;SDS011;6804;48.774;9.174;2022-11-03T12:45:11;3.93;;;3.03;;
13463;SDS011;6804;48.774;9.174;2022-11-03T12:47:42;4.67;;;2.83;;
13463;SDS011;6804;48.774;9.174;2022-11-03T12:50:10;3.87;;;2.63;;
13463;SDS011;6804;48.774;9.174;2022-11-03T12:52:37;4.57;;;2.80;;
13463;SDS011;6804;48.774;9.174;2022-11-03T12:55:09;6.27;;;2.90;;
13463;SDS011;6804;48.774;9.174;2022-11-03T12:57:37;4.10;;;3.20;;
13463;SDS011;6804;48.774;9.174;2022-11-03T13:00:07;4.40;;;3.07;;
13463;SDS011;6804;48.774;9.174;2022-11-03T13:02:36;3.37;;;2.83;;
13463;SDS011;6804;48.774;9.174;2022-11-03T13:05:04;3.40;;;2.67;;
13463;SDS011;6804;48.774;9.174;2022-11-03T13:07:33;5.00;;;2.80;;
13463;SDS011;6804;48.774;9.174;2022-11-03T13:10:01;5.03;;;2.60;;
13463;SDS011;6804;48.774;9.174;2022-11-03T13:12:29;7.30;;;2.80;;
13463;SDS011;6804;48.774;9.174;2022-11-03T13:15:02;4.10;;;2.70;;
13463;SDS011;6804;48.774;9.174;2022-11-03T13:17:33;3.53;;;2.80;;
13463;SDS011;6804;48.774;9.174;2022-11-03T13:20:04;6.33;;;3.40;;
13463;SDS011;6804;48.774;9.174;2022-11-03T13:22:33;6.43;;;2.90;;
13463;SDS011;6804;48.774;9.174;2022-11-03T13:25:00;5.40;;;3.40;;
13463;SDS011;6804;48.774;9.174;2022-11-03T13:27:29;5.23;;;3.40;;
13463;SDS011;6804;48.774;9.174;2022-11-03T13:29:57;6.80;;;3.33;;
13463;SDS011;6804;48.774;9.174;2022-11-03T13:32:24;4.67;;;3.17;;
13463;SDS011;6804;48.774;9.174;2022-11-03T13:34:53;9.80;;;4.83;;
13463;SDS011;6804;48.774;9.174;2022-11-03T13:37:21;5.57;;;3.67;;
13463;SDS011;6804;48.774;9.174;2022-11-03T13:39:49;7.03;;;4.10;;
13463;SDS011;6804;48.774;9.174;2022-11-03T13:42:17;7.53;;;4.80;;
13463;SDS011;6804;48.774;9.174;2022-11-03T13:44:45;9.50;;;4.43;;
13463;SDS011;6804;48.774;9.174;2022-11-03T13:47:12;11.53;;;5.37;;
13463;SDS011;6804;48.774;9.174;2022-11-03T13:49:41;11.83;;;5.23;;
13463;SDS011;6804;48.774;9.174;2022-11-03T13:52:10;9.23;;;5.20;;
13463;SDS011;6804;48.774;9.174;2022-11-03T13:54:38;9.10;;;5.47;;
13463;SDS011;6804;48.774;9.174;2022-11-03T13:57:06;8.70;;;6.23;;
13463;SDS011;6804;48.774;9.174;2022-11-03T13:59:34;14.70;;;7.20;;
13463;SDS011;6804;48.774;9.174;2022-11-03T14:02:02;12.53;;;7.00;;
13463;SDS011;6804;48.774;9.174;2022-11-03T14:04:30;11.90;;;6.60;;
13463;SDS011;6804;48.774;9.174;2022-11-03T14:07:03;9.10;;;6.20;;
13463;SDS011;6804;48.774;9.174;2022-11-03T14:09:33;9.10;;;5.47;;
13463;SDS011;6804;48.774;9.174;2022-11-03T14:12:04;7.03;;;5.03;;
13463;SDS011;6804;48.774;9.174;2022-11-03T14:14:49;11.20;;;4.70;;
13463;SDS011;6804;48.774;9.174;2022-11-03T14:17:17;10.23;;;5.27;;
13463;SDS011;6804;48.774;9.174;2022-11-03T14:19:45;10.30;;;5.47;;
13463;SDS011;6804;48.774;9.174;2022-11-03T14:22:13;7.57;;;4.93;;
13463;SDS011;6804;48.774;9.174;2022-11-03T14:24:42;9.13;;;5.07;;
13463;SDS011;6804;48.774;9.174;2022-11-03T14:27:11;10.90;;;4.40;;
13463;SDS011;6804;48.774;9.174;2022-11-03T14:29:45;8.13;;;4.37;;
13463;SDS011;6804;48.774;9.174;2022-11-03T14:32:14;7.33;;;4.13;;
13463;SDS011;6804;48.774;9.174;2022-11-03T14:34:42;7.57;;;4.37;;
13463;SDS011;6804;48.774;9.174;2022-11-03T14:37:11;5.60;;;3.57;;
13463;SDS011;6804;48.774;9.174;2022-11-03T14:39:43;9.70;;;4.77;;
13463;SDS011;6804;48.774;9.174;2022-11-03T14:42:14;4.43;;;4.00;;
13463;SDS011;6804;48.774;9.174;2022-11-03T14:44:41;7.07;;;4.03;;
13463;SDS011;6804;48.774;9.174;2022-11-03T14:47:12;7.00;;;4.07;;
13463;SDS011;6804;48.774;9.174;2022-11-03T14:49:45;10.40;;;4.17;;
13463;SDS011;6804;48.774;9.174;2022-11-03T14:52:14;7.10;;;4.20;;
13463;SDS011;6804;48.774;9.174;2022-11-03T14:54:45;6.57;;;4.10;;
13463;SDS011;6804;48.774;9.174;2022-11-03T14:57:16;7.10;;;5.43;;
13463;SDS011;6804;48.774;9.174;2022-11-03T14:59:44;9.40;;;4.90;;
13463;SDS011;6804;48.774;9.174;2022-11-03T15:02:14;6.40;;;4.83;;
13463;SDS011;6804;48.774;9.174;2022-11-03T15:04:45;6.20;;;4.67;;
13463;SDS011;6804;48.774;9.174;2022-11-03T15:07:13;9.50;;;4.30;;
13463;SDS011;6804;48.774;9.174;2022-11-03T15:09:41;9.03;;;5.00;;
13463;SDS011;6804;48.774;9.174;2022-11-03T15:12:11;7.50;;;5.07;;
13463;SDS011;6804;48.774;9.174;2022-11-03T15:14:38;7.77;;;4.90;;
13463;SDS011;6804;48.774;9.174;2022-11-03T15:17:06;8.83;;;4.83;;
13463;SDS011;6804;48.774;9.174;2022-11-03T15:19:36;10.30;;;5.17;;
13463;SDS011;6804;48.774;9.174;2022-11-03T15:22:04;7.17;;;5.23;;
13463;SDS011;6804;48.774;9.174;2022-11-03T15:24:35;7.07;;;4.47;;
13463;SDS011;6804;48.774;9.174;2022-11-03T15:27:06;8.77;;;4.90;;
13463;SDS011;6804;48.774;9.174;2022-11-03T15:29:36;6.30;;;4.37;;
13463;SDS011;6804;48.774;9.174;2022-11-03T15:32:04;5.37;;;4.47;;
13463;SDS011;6804;48.774;9.174;2022-11-03T15:34:32;7.47;;;4.40;;
13463;SDS011;6804;48.774;9.174;2022-11-03T15:37:04;9.83;;;4.83;;
13463;SDS011;6804;48.774;9.174;2022-11-03T15:39:35;6.83;;;4.30;;
13463;SDS011;6804;48.774;9.174;2022-11-03T15:42:03;5.93;;;4.73;;
13463;SDS011;6804;48.774;9.174;2022-11-03T15:44:31;8.73;;;5.27;;
13463;SDS011;6804;48.774;9.174;2022-11-03T15:47:01;7.77;;;4.33;;
13463;SDS011;6804;48.774;9.174;2022-11-03T15:49:28;6.47;;;4.73;;
13463;SDS011;6804;48.774;9.174;2022-11-03T15:51:56;10.37;;;4.40;;
13463;SDS011;6804;48.774;9.174;2022-11-03T15:54:24;6.33;;;4.30;;
13463;SDS011;6804;48.774;9.174;2022-11-03T15:56:54;5.10;;;4.10;;
13463;SDS011;6804;48.774;9.174;2022-11-03T15:59:22;7.03;;;4.30;;